createdAt,value
2018-12-13T00:00:22.903Z,78.09
2018-12-13T00:02:51.943Z,77.92
2018-12-13T00:05:20.993Z,78.01
2018-12-13T00:07:50.061Z,77.96
2018-12-13T00:10:19.104Z,77.96
2018-12-13T00:12:48.171Z,77.37
2018-12-13T00:15:17.262Z,77.58
2018-12-13T00:17:46.320Z,77.58
2018-12-13T00:20:15.378Z,77.83
2018-12-13T00:22:44.439Z,77.97
2018-12-13T00:25:13.483Z,77.98
2018-12-13T00:27:42.518Z,77.88
2018-12-13T00:30:11.601Z,77.74
2018-12-13T00:32:40.648Z,77.62
2018-12-13T00:35:09.688Z,77.60
2018-12-13T00:37:38.778Z,77.58
2018-12-13T00:40:07.832Z,77.27
2018-12-13T00:42:36.875Z,76.98
2018-12-13T00:45:05.942Z,76.64
2018-12-13T00:47:34.984Z,76.78
2018-12-13T00:50:04.034Z,76.92
2018-12-13T00:52:33.113Z,77.09
2018-12-13T00:55:02.149Z,77.12
2018-12-13T00:57:31.215Z,77.24
2018-12-13T01:00:00.305Z,77.11
2018-12-13T01:02:29.347Z,76.94
2018-12-13T01:04:58.402Z,77.12
2018-12-13T01:07:27.544Z,77.39
2018-12-13T01:09:56.597Z,77.44
2018-12-13T01:12:25.637Z,77.74
2018-12-13T01:14:54.708Z,77.90
2018-12-13T01:17:23.754Z,78.19
2018-12-13T01:19:52.804Z,78.45
2018-12-13T01:22:21.897Z,78.61
2018-12-13T01:24:50.942Z,78.75
2018-12-13T01:27:19.979Z,79.01
2018-12-13T01:29:49.048Z,79.04
2018-12-13T01:32:18.094Z,79.14
2018-12-13T01:34:47.135Z,79.09
2018-12-13T01:37:16.209Z,79.21
2018-12-13T01:39:45.251Z,79.57
2018-12-13T01:42:14.294Z,79.85
2018-12-13T01:44:43.411Z,80.15
2018-12-13T01:47:12.443Z,80.57
2018-12-13T01:49:41.493Z,80.91
2018-12-13T01:52:10.566Z,81.10
2018-12-13T01:54:39.617Z,81.33
2018-12-13T01:57:08.671Z,81.52
2018-12-13T01:59:37.742Z,81.57
2018-12-13T02:02:06.786Z,81.57
2018-12-13T02:04:35.832Z,81.74
2018-12-13T02:07:05.243Z,81.94
2018-12-13T02:09:34.294Z,82.11
2018-12-13T02:12:03.357Z,82.23
2018-12-13T02:14:32.437Z,82.38
2018-12-13T02:17:01.489Z,82.28
2018-12-13T02:19:30.544Z,81.97
2018-12-13T02:21:59.627Z,81.50
2018-12-13T02:24:28.667Z,81.33
2018-12-13T02:26:57.716Z,80.87
2018-12-13T02:29:26.887Z,80.69
2018-12-13T02:31:55.933Z,80.70
2018-12-13T02:34:24.981Z,80.40
2018-12-13T02:36:54.053Z,80.36
2018-12-13T02:39:23.107Z,81.12
2018-12-13T02:41:52.142Z,82.03
2018-12-13T02:44:21.423Z,82.41
2018-12-13T02:46:50.480Z,82.55
2018-12-13T02:49:19.532Z,82.85
2018-12-13T02:51:48.629Z,83.02
2018-12-13T02:54:17.676Z,83.05
2018-12-13T02:56:46.728Z,83.01
2018-12-13T02:59:15.797Z,83.10
2018-12-13T03:01:44.852Z,83.18
2018-12-13T03:04:13.912Z,83.25
2018-12-13T03:06:43.076Z,83.13
2018-12-13T03:09:12.120Z,83.10
2018-12-13T03:11:41.174Z,83.08
2018-12-13T03:14:10.286Z,83.09
2018-12-13T03:16:39.350Z,83.12
2018-12-13T03:19:08.407Z,82.97
2018-12-13T03:21:37.486Z,82.96
2018-12-13T03:24:06.535Z,83.08
2018-12-13T03:26:35.594Z,83.12
2018-12-13T03:29:04.672Z,83.09
2018-12-13T03:31:33.723Z,83.10
2018-12-13T03:34:02.784Z,83.14
2018-12-13T03:36:31.909Z,83.14
2018-12-13T03:39:00.964Z,83.14
2018-12-13T03:41:30.026Z,83.11
2018-12-13T03:43:59.115Z,82.98
2018-12-13T03:46:28.167Z,82.98
2018-12-13T03:48:57.222Z,83.06
2018-12-13T03:51:26.306Z,81.87
2018-12-13T03:53:55.350Z,80.78
2018-12-13T03:56:24.395Z,81.17
2018-12-13T03:58:53.474Z,81.21
2018-12-13T04:01:22.528Z,81.26
2018-12-13T04:03:51.576Z,81.34
2018-12-13T04:06:26.739Z,81.12
2018-12-13T04:08:55.788Z,81.04
2018-12-13T04:11:24.844Z,80.78
2018-12-13T04:13:53.916Z,80.69
2018-12-13T04:16:33.840Z,80.75
2018-12-13T04:19:02.938Z,80.70
2018-12-13T04:21:31.978Z,80.60
2018-12-13T04:24:01.022Z,80.79
2018-12-13T04:26:30.087Z,80.30
2018-12-13T04:28:59.136Z,79.98
2018-12-13T04:31:28.185Z,79.76
2018-12-13T04:33:57.261Z,80.08
2018-12-13T04:36:26.303Z,80.33
2018-12-13T04:38:55.368Z,80.52
2018-12-13T04:41:24.480Z,80.69
2018-12-13T04:43:53.527Z,80.96
2018-12-13T04:46:22.573Z,81.00
2018-12-13T04:48:51.678Z,81.11
2018-12-13T04:51:20.716Z,81.21
2018-12-13T04:53:49.777Z,81.21
2018-12-13T04:56:33.883Z,81.21
2018-12-13T04:59:02.934Z,81.25
2018-12-13T05:01:31.990Z,81.09
2018-12-13T05:04:01.056Z,80.92
2018-12-13T05:06:30.107Z,80.62
2018-12-13T05:08:59.149Z,80.41
2018-12-13T05:11:28.227Z,80.19
2018-12-13T05:13:57.287Z,80.21
2018-12-13T05:16:26.359Z,80.07
2018-12-13T05:18:55.465Z,79.77
2018-12-13T05:21:24.524Z,79.42
2018-12-13T05:23:53.593Z,79.55
2018-12-13T05:26:39.731Z,79.40
2018-12-13T05:29:08.793Z,79.52
2018-12-13T05:31:37.843Z,79.50
2018-12-13T05:34:07.031Z,78.12
2018-12-13T05:36:36.088Z,78.58
2018-12-13T05:39:05.130Z,78.45
2018-12-13T05:41:34.234Z,78.63
2018-12-13T05:44:03.287Z,78.78
2018-12-13T05:46:32.332Z,78.90
2018-12-13T05:49:01.412Z,78.81
2018-12-13T05:51:30.503Z,78.89
2018-12-13T05:53:59.554Z,79.00
2018-12-13T05:56:36.454Z,79.00
2018-12-13T05:59:05.504Z,78.93
2018-12-13T06:01:34.555Z,78.96
2018-12-13T06:04:03.639Z,78.98
2018-12-13T06:06:34.656Z,79.24
2018-12-13T06:09:03.710Z,79.37
2018-12-13T06:11:32.794Z,79.24
2018-12-13T06:14:01.854Z,79.11
2018-12-13T06:16:30.909Z,79.04
2018-12-13T06:19:00.015Z,79.00
2018-12-13T06:21:29.073Z,78.10
2018-12-13T06:23:58.130Z,78.58
2018-12-13T06:26:27.215Z,77.11
2018-12-13T06:28:56.263Z,75.52
2018-12-13T06:31:25.343Z,75.31
2018-12-13T06:33:54.502Z,74.27
2018-12-13T06:36:28.813Z,73.76
2018-12-13T06:38:57.926Z,73.05
2018-12-13T06:41:26.973Z,72.53
2018-12-13T06:43:56.010Z,72.51
2018-12-13T06:46:25.093Z,73.20
2018-12-13T06:48:54.147Z,72.97
2018-12-13T06:51:23.185Z,73.30
2018-12-13T06:53:52.257Z,73.32
2018-12-13T06:56:21.323Z,73.75
2018-12-13T06:58:50.379Z,73.89
2018-12-13T07:01:19.474Z,73.94
2018-12-13T07:03:48.534Z,73.99
2018-12-13T07:06:17.588Z,73.97
2018-12-13T07:08:46.666Z,73.12
2018-12-13T07:11:15.707Z,72.85
2018-12-13T07:13:44.762Z,72.25
2018-12-13T07:16:13.829Z,72.01
2018-12-13T07:18:42.881Z,72.04
2018-12-13T07:21:11.948Z,72.25
2018-12-13T07:23:41.041Z,72.22
2018-12-13T07:26:16.164Z,72.73
2018-12-13T07:28:45.277Z,73.16
2018-12-13T07:31:14.335Z,73.69
2018-12-13T07:33:43.400Z,73.97
2018-12-13T07:36:19.930Z,74.24
2018-12-13T07:38:48.994Z,74.15
2018-12-13T07:41:18.146Z,74.35
2018-12-13T07:43:47.249Z,75.44
2018-12-13T07:46:16.309Z,76.25
2018-12-13T07:48:45.370Z,76.78
2018-12-13T07:51:14.451Z,77.37
2018-12-13T07:53:43.505Z,78.19
2018-12-13T07:56:12.667Z,79.08
2018-12-13T07:58:41.687Z,79.21
2018-12-13T08:01:10.748Z,79.21
2018-12-13T08:03:39.810Z,79.23
2018-12-13T08:06:08.944Z,79.27
2018-12-13T08:08:38.004Z,79.21
2018-12-13T08:11:07.065Z,79.11
2018-12-13T08:13:36.150Z,79.29
2018-12-13T08:16:05.204Z,79.20
2018-12-13T08:18:34.255Z,79.40
2018-12-13T08:21:03.345Z,79.53
2018-12-13T08:23:32.405Z,79.62
2018-12-13T08:26:01.461Z,79.59
2018-12-13T08:28:30.577Z,79.50
2018-12-13T08:30:59.634Z,79.19
2018-12-13T08:33:28.699Z,79.00
2018-12-13T08:35:59.789Z,79.08
2018-12-13T08:38:28.845Z,78.90
2018-12-13T08:40:57.896Z,78.88
2018-12-13T08:43:26.986Z,78.90
2018-12-13T08:45:56.052Z,79.16
2018-12-13T08:48:25.118Z,79.44
2018-12-13T08:50:54.372Z,79.89
2018-12-13T08:53:23.279Z,80.02
2018-12-13T08:55:53.355Z,80.21
2018-12-13T08:58:22.442Z,80.25
2018-12-13T09:00:51.503Z,80.26
2018-12-13T09:03:20.579Z,80.22
2018-12-13T09:05:49.671Z,80.11
2018-12-13T09:08:18.772Z,80.22
2018-12-13T09:10:47.837Z,80.37
2018-12-13T09:13:17.243Z,80.47
2018-12-13T09:15:46.303Z,80.48
2018-12-13T09:18:15.360Z,80.73
2018-12-13T09:20:44.448Z,80.99
2018-12-13T09:23:13.505Z,81.05
2018-12-13T09:25:42.558Z,81.30
2018-12-13T09:28:11.647Z,81.58
2018-12-13T09:30:40.704Z,81.45
2018-12-13T09:33:09.772Z,81.49
2018-12-13T09:35:39.003Z,81.41
2018-12-13T09:38:08.060Z,81.39
2018-12-13T09:40:37.124Z,81.29
2018-12-13T09:43:06.205Z,81.19
2018-12-13T09:45:35.264Z,81.15
2018-12-13T09:48:04.325Z,81.11
2018-12-13T09:50:33.417Z,80.94
2018-12-13T09:53:02.490Z,81.02
2018-12-13T09:55:31.545Z,81.19
2018-12-13T09:58:00.653Z,81.46
2018-12-13T10:00:29.717Z,81.70
2018-12-13T10:02:58.762Z,81.85
2018-12-13T10:05:27.868Z,81.95
2018-12-13T10:07:56.924Z,81.97
2018-12-13T10:10:25.982Z,81.80
2018-12-13T10:12:55.075Z,81.75
2018-12-13T10:15:24.146Z,81.78
2018-12-13T10:17:53.197Z,81.76
2018-12-13T10:20:22.334Z,81.91
2018-12-13T10:22:51.399Z,81.74
2018-12-13T10:25:20.453Z,81.46
2018-12-13T10:27:49.543Z,81.18
2018-12-13T10:30:18.597Z,80.94
2018-12-13T10:32:47.649Z,80.56
2018-12-13T10:35:16.826Z,80.10
2018-12-13T10:37:45.881Z,79.69
2018-12-13T10:40:14.937Z,79.27
2018-12-13T10:42:44.037Z,79.30
2018-12-13T10:45:13.091Z,79.15
2018-12-13T10:47:42.147Z,79.21
2018-12-13T10:50:11.242Z,79.28
2018-12-13T10:52:40.294Z,79.56
2018-12-13T10:55:09.377Z,79.83
2018-12-13T10:57:38.483Z,80.18
2018-12-13T11:00:07.541Z,80.14
2018-12-13T11:02:43.203Z,80.15
2018-12-13T11:05:12.258Z,80.01
2018-12-13T11:07:41.317Z,80.01
2018-12-13T11:10:10.394Z,80.02
2018-12-13T11:12:39.444Z,79.86
2018-12-13T11:15:08.492Z,79.79
2018-12-13T11:17:37.569Z,79.61
2018-12-13T11:20:06.626Z,79.65
2018-12-13T11:22:35.689Z,79.27
2018-12-13T11:25:04.944Z,79.17
2018-12-13T11:27:45.808Z,78.86
2018-12-13T11:30:21.426Z,78.95
2018-12-13T11:32:50.481Z,78.81
2018-12-13T11:35:19.558Z,79.22
2018-12-13T11:37:48.648Z,79.43
2018-12-13T11:40:17.714Z,79.49
2018-12-13T11:42:46.774Z,79.75
2018-12-13T11:45:15.889Z,79.68
2018-12-13T11:47:44.957Z,79.73
2018-12-13T11:50:14.017Z,79.74
2018-12-13T11:52:43.103Z,79.63
2018-12-13T11:55:19.778Z,79.52
2018-12-13T11:57:48.857Z,79.46
2018-12-13T12:00:17.913Z,79.43
2018-12-13T12:02:46.976Z,79.24
2018-12-13T12:05:16.082Z,78.99
2018-12-13T12:07:45.148Z,78.97
2018-12-13T12:10:14.225Z,78.92
2018-12-13T12:12:43.297Z,78.89
2018-12-13T12:15:12.361Z,79.08
2018-12-13T12:17:41.425Z,79.57
2018-12-13T12:20:10.504Z,80.03
2018-12-13T12:22:39.577Z,80.60
2018-12-13T12:25:08.646Z,80.68
2018-12-13T12:27:37.731Z,81.34
2018-12-13T12:30:06.788Z,81.45
2018-12-13T12:32:35.850Z,81.45
2018-12-13T12:35:04.965Z,81.32
2018-12-13T12:37:34.015Z,81.06
2018-12-13T12:40:03.078Z,80.97
2018-12-13T12:42:32.180Z,80.66
2018-12-13T12:45:01.245Z,80.50
2018-12-13T12:47:30.296Z,80.37
2018-12-13T12:49:59.397Z,80.28
2018-12-13T12:52:28.441Z,80.09
2018-12-13T12:54:57.509Z,80.07
2018-12-13T12:57:26.603Z,80.27
2018-12-13T12:59:55.691Z,80.35
2018-12-13T13:02:24.776Z,80.45
2018-12-13T13:04:53.862Z,80.57
2018-12-13T13:07:22.942Z,80.73
2018-12-13T13:09:52.074Z,80.81
2018-12-13T13:12:21.299Z,80.96
2018-12-13T13:14:50.400Z,81.27
2018-12-13T13:17:19.511Z,81.43
2018-12-13T13:19:48.602Z,81.85
2018-12-13T13:22:17.659Z,82.33
2018-12-13T13:24:46.721Z,82.88
2018-12-13T13:27:15.815Z,82.75
2018-12-13T13:29:44.873Z,82.94
2018-12-13T13:32:13.983Z,83.35
2018-12-13T13:34:43.129Z,83.55
2018-12-13T13:37:12.197Z,83.24
2018-12-13T13:39:41.264Z,83.10
2018-12-13T13:42:10.348Z,82.96
2018-12-13T13:44:39.422Z,82.98
2018-12-13T13:47:08.490Z,82.99
2018-12-13T13:49:37.594Z,83.00
2018-12-13T13:52:06.668Z,82.85
2018-12-13T13:54:35.746Z,82.79
2018-12-13T13:57:04.868Z,82.74
2018-12-13T13:59:33.931Z,82.63
2018-12-13T14:02:03.003Z,82.57
2018-12-13T14:04:32.099Z,82.48
2018-12-13T14:07:01.173Z,82.44
2018-12-13T14:09:30.231Z,82.32
2018-12-13T14:11:59.321Z,82.24
2018-12-13T14:14:28.383Z,82.12
2018-12-13T14:16:57.451Z,82.10
2018-12-13T14:19:26.572Z,82.11
2018-12-13T14:21:55.630Z,82.14
2018-12-13T14:24:24.693Z,82.19
2018-12-13T14:26:53.806Z,82.03
2018-12-13T14:29:22.877Z,82.09
2018-12-13T14:31:51.948Z,82.22
2018-12-13T14:34:21.024Z,82.23
2018-12-13T14:36:50.083Z,82.24
2018-12-13T14:39:19.145Z,82.28
2018-12-13T14:41:48.285Z,82.33
2018-12-13T14:44:17.350Z,82.43
2018-12-13T14:46:46.425Z,82.40
2018-12-13T14:49:15.525Z,82.28
2018-12-13T14:51:44.598Z,82.22
2018-12-13T14:54:13.670Z,82.04
2018-12-13T14:56:42.776Z,81.99
2018-12-13T14:59:11.841Z,81.62
2018-12-13T15:01:40.898Z,80.84
2018-12-13T15:04:09.998Z,80.45
2018-12-13T15:06:39.057Z,80.49
2018-12-13T15:09:08.117Z,80.52
2018-12-13T15:11:37.487Z,80.67
2018-12-13T15:14:06.569Z,80.50
2018-12-13T15:16:35.626Z,80.16
2018-12-13T15:19:04.718Z,80.55
2018-12-13T15:21:33.829Z,80.62
2018-12-13T15:24:02.904Z,80.53
2018-12-13T15:29:26.347Z,79.23
2018-12-13T15:31:59.353Z,80.04
2018-12-13T15:34:24.919Z,79.91
2018-12-13T15:36:53.989Z,79.34
2018-12-13T15:39:23.080Z,79.73
2018-12-13T15:41:52.189Z,79.13
2018-12-13T15:44:21.232Z,79.81
2018-12-13T15:46:50.365Z,79.62
2018-12-13T15:49:19.440Z,78.70
2018-12-13T15:51:48.509Z,77.31
2018-12-13T15:54:17.621Z,75.95
2018-12-13T15:56:46.698Z,76.63
2018-12-13T15:59:15.787Z,75.18
2018-12-13T16:01:44.885Z,75.18
2018-12-13T16:04:13.957Z,75.67
2018-12-13T16:06:43.024Z,76.39
2018-12-13T16:09:12.474Z,77.11
2018-12-13T16:11:41.528Z,77.53
2018-12-13T16:14:10.586Z,77.65
2018-12-13T16:16:39.698Z,77.23
2018-12-13T16:19:08.755Z,77.36
2018-12-13T16:21:37.821Z,77.39
2018-12-13T16:24:06.908Z,77.56
2018-12-13T16:26:35.969Z,77.80
2018-12-13T16:29:05.032Z,77.84
2018-12-13T16:31:34.163Z,77.64
2018-12-13T16:34:03.228Z,77.27
2018-12-13T16:36:36.839Z,76.81
2018-12-13T16:39:05.898Z,76.09
2018-12-13T16:41:34.959Z,76.27
2018-12-13T16:44:04.047Z,75.76
2018-12-13T16:46:33.123Z,75.61
2018-12-13T16:49:02.182Z,75.41
2018-12-13T16:51:31.352Z,75.19
2018-12-13T16:54:00.421Z,74.81
2018-12-13T16:56:29.484Z,74.21
2018-12-13T16:58:58.573Z,74.17
2018-12-13T17:01:27.773Z,73.90
2018-12-13T17:03:56.802Z,73.73
2018-12-13T17:06:25.931Z,73.73
2018-12-13T17:08:54.992Z,73.67
2018-12-13T17:11:24.052Z,73.74
2018-12-13T17:13:53.168Z,73.98
2018-12-13T17:16:22.238Z,73.88
2018-12-13T17:18:51.315Z,74.09
2018-12-13T17:21:20.399Z,74.23
2018-12-13T17:23:49.468Z,74.07
2018-12-13T17:26:18.535Z,73.92
2018-12-13T17:28:47.626Z,73.80
2018-12-13T17:31:16.687Z,73.95
2018-12-13T17:33:45.754Z,73.97
2018-12-13T17:36:15.067Z,73.85
2018-12-13T17:38:44.134Z,73.71
2018-12-13T17:41:13.184Z,73.40
2018-12-13T17:43:42.272Z,73.45
2018-12-13T17:46:13.351Z,73.54
2018-12-13T17:48:42.436Z,73.46
2018-12-13T17:51:11.496Z,73.42
2018-12-13T17:53:40.562Z,73.55
2018-12-13T17:56:26.602Z,73.52
2018-12-13T17:58:55.679Z,73.28
2018-12-13T18:01:24.747Z,72.46
2018-12-13T18:03:53.839Z,71.83
2018-12-13T18:06:22.906Z,71.63
2018-12-13T18:08:51.974Z,71.61
2018-12-13T18:11:21.069Z,71.63
2018-12-13T18:13:50.131Z,72.09
2018-12-13T18:16:19.189Z,72.08
2018-12-13T18:18:48.328Z,72.28
2018-12-13T18:21:17.440Z,72.50
2018-12-13T18:23:47.025Z,72.65
2018-12-13T18:26:30.260Z,72.76
2018-12-13T18:28:59.330Z,72.54
2018-12-13T18:31:28.396Z,72.86
2018-12-13T18:33:57.517Z,72.43
2018-12-13T18:36:26.577Z,72.67
2018-12-13T18:38:55.635Z,72.37
2018-12-13T18:41:24.732Z,72.40
2018-12-13T18:43:53.808Z,72.26
2018-12-13T18:46:35.761Z,72.20
2018-12-13T18:49:04.818Z,72.21
2018-12-13T18:51:33.898Z,71.40
2018-12-13T18:54:03.026Z,71.31
2018-12-13T18:56:32.098Z,71.36
2018-12-13T18:59:01.160Z,71.59
2018-12-13T19:01:30.250Z,71.75
2018-12-13T19:03:59.324Z,71.59
2018-12-13T19:06:31.550Z,71.33
2018-12-13T19:09:00.614Z,71.50
2018-12-13T19:11:36.371Z,71.67
2018-12-13T19:14:05.470Z,71.33
2018-12-13T19:16:34.562Z,71.50
2018-12-13T19:19:03.631Z,71.76
2018-12-13T19:21:32.753Z,72.10
2018-12-13T19:24:01.821Z,71.97
2018-12-13T19:26:30.881Z,71.68
2018-12-13T19:28:59.964Z,71.89
2018-12-13T19:31:29.033Z,71.87
2018-12-13T19:33:58.158Z,71.71
2018-12-13T19:36:29.352Z,72.05
2018-12-13T19:38:58.408Z,71.96
2018-12-13T19:41:27.478Z,71.70
2018-12-13T19:43:56.560Z,71.81
2018-12-13T19:46:25.622Z,71.52
2018-12-13T19:48:54.690Z,71.50
2018-12-13T19:51:23.814Z,71.48
2018-12-13T19:53:52.872Z,71.73
2018-12-13T19:56:21.943Z,71.66
2018-12-13T19:58:51.083Z,71.69
2018-12-13T20:01:20.139Z,71.66
2018-12-13T20:03:49.216Z,71.58
2018-12-13T20:06:18.391Z,71.62
2018-12-13T20:08:47.451Z,71.27
2018-12-13T20:11:16.504Z,71.23
2018-12-13T20:13:45.592Z,71.67
2018-12-13T20:16:14.638Z,71.66
2018-12-13T20:18:43.705Z,72.11
2018-12-13T20:21:12.812Z,72.42
2018-12-13T20:23:41.864Z,72.38
2018-12-13T20:26:10.932Z,72.10
2018-12-13T20:28:40.018Z,71.84
2018-12-13T20:31:09.064Z,72.02
2018-12-13T20:33:38.124Z,71.72
2018-12-13T20:36:07.199Z,70.91
2018-12-13T20:38:36.272Z,70.73
2018-12-13T20:41:05.339Z,70.76
2018-12-13T20:43:34.563Z,70.82
2018-12-13T20:46:03.624Z,71.28
2018-12-13T20:48:32.670Z,71.56
2018-12-13T20:51:01.848Z,70.93
2018-12-13T20:53:30.909Z,70.85
2018-12-13T20:56:09.551Z,71.24
2018-12-13T20:58:38.605Z,71.17
2018-12-13T21:01:07.663Z,70.99
2018-12-13T21:03:36.771Z,70.92
2018-12-13T21:06:05.830Z,70.70
2018-12-13T21:08:34.897Z,70.85
2018-12-13T21:11:07.385Z,70.90
2018-12-13T21:13:33.065Z,70.68
2018-12-13T21:16:02.312Z,70.54
2018-12-13T21:18:31.209Z,70.71
2018-12-13T21:21:00.269Z,70.78
2018-12-13T21:23:29.329Z,70.74
2018-12-13T21:25:58.466Z,70.32
2018-12-13T21:28:27.523Z,70.19
2018-12-13T21:30:56.579Z,70.49
2018-12-13T21:33:25.658Z,71.02
2018-12-13T21:35:54.744Z,71.13
2018-12-13T21:38:23.776Z,71.36
2018-12-13T21:40:53.200Z,71.65
2018-12-13T21:43:22.268Z,71.60
2018-12-13T21:45:51.338Z,71.69
2018-12-13T21:48:20.488Z,71.84
2018-12-13T21:50:49.559Z,71.95
2018-12-13T21:53:18.617Z,72.26
2018-12-13T21:55:47.731Z,72.42
2018-12-13T21:58:16.794Z,72.42
2018-12-13T22:00:45.867Z,72.30
2018-12-13T22:03:14.937Z,72.47
2018-12-13T22:05:44.000Z,72.45
2018-12-13T22:08:13.064Z,72.53
2018-12-13T22:10:42.262Z,72.62
2018-12-13T22:13:11.347Z,72.58
2018-12-13T22:15:40.411Z,72.48
2018-12-13T22:18:09.504Z,72.27
2018-12-13T22:20:38.573Z,72.18
2018-12-13T22:23:07.639Z,71.39
2018-12-13T22:25:36.735Z,71.65
2018-12-13T22:28:05.803Z,71.62
2018-12-13T22:30:34.878Z,71.81
2018-12-13T22:33:03.999Z,71.71
2018-12-13T22:35:33.135Z,71.84
2018-12-13T22:38:02.212Z,72.12
2018-12-13T22:40:31.302Z,72.42
2018-12-13T22:43:00.385Z,72.78
2018-12-13T22:45:39.331Z,72.92
2018-12-13T22:48:06.771Z,73.10
2018-12-13T22:50:35.919Z,72.95
2018-12-13T22:53:05.118Z,73.13
2018-12-13T22:55:34.217Z,73.22
2018-12-13T22:58:03.300Z,73.27
2018-12-13T23:00:32.358Z,73.33
2018-12-13T23:03:01.434Z,73.38
2018-12-13T23:05:30.512Z,73.35
2018-12-13T23:07:59.566Z,73.36
2018-12-13T23:10:28.641Z,73.44
2018-12-13T23:12:57.803Z,73.54
2018-12-13T23:15:26.873Z,73.65
2018-12-13T23:17:55.952Z,73.40
2018-12-13T23:20:25.097Z,73.51
2018-12-13T23:22:54.165Z,73.47
2018-12-13T23:25:23.229Z,73.47
2018-12-13T23:27:52.316Z,73.70
2018-12-13T23:30:21.385Z,74.00
2018-12-13T23:32:50.456Z,74.10
2018-12-13T23:35:19.609Z,74.05
2018-12-13T23:37:48.679Z,74.18
2018-12-13T23:40:17.745Z,74.08
2018-12-13T23:42:46.830Z,74.02
2018-12-13T23:45:15.879Z,74.20
2018-12-13T23:47:44.927Z,74.43
2018-12-13T23:50:14.125Z,74.61
2018-12-13T23:52:43.190Z,74.89
2018-12-13T23:55:12.254Z,75.17
2018-12-13T23:57:41.372Z,75.49
